Quail, Texas
Current Conditions -  °F | °C
As of 3:53 PM on Friday 31 Oct 2014 (Local Time) from KCDS Reporting Station
Clear Clear  
Wind Chill: 62°   Ceiling: Unl
Heat Index: 62°   Visibility: 10mi
Dew Point: 27°   Wind: 7mph
Humidity: 26%   Direction: 80°E
Pressure: 30.37"   Gusts: NA
Location:  34.91°N, 100.4°W
Report Text: KCDS 312053Z AUTO 08006KT 10SM CLR 17/M03 A3037 RMK AO2 SLP279 T01671028 56025
Loading
Personal Weather Stations






























Interactive Weather Map
Tropical Storm Tracking
New forecast layout! Learn more

10-Day Weather Forecast

Advertisements
Track Severe Weather on mobile